Time;durP1;ratioP1;P1;durP2;ratioP2;P2;SDS_P1;SDS_P2;PMS_P1;PMS_P2;Temp;Humidity;BMP_temperature;BMP_pressure;BME280_temperature;BME280_humidity;BME280_pressure;Samples;Min_cycle;Max_cycle;Signal;HPM_P1;HPM_P2
2022/05/15 00:01:32;;;;;;;5.30;2.97;;;;;;;15.57;60.70;100433.88;5074921;28;20071;-75
2022/05/15 00:04:01;;;;;;;6.22;2.80;;;;;;;15.62;60.14;100429.88;5074561;28;20054;-74
2022/05/15 00:06:31;;;;;;;7.18;2.85;;;;;;;15.61;59.99;100427.31;5076056;28;20090;-74
2022/05/15 00:08:59;;;;;;;6.68;3.00;;;;;;;15.70;59.27;100432.81;5074586;28;20059;-75
2022/05/15 00:11:28;;;;;;;8.63;3.40;;;;;;;15.77;58.95;100432.34;5075878;28;20041;-75
2022/05/15 00:13:57;;;;;;;5.85;3.30;;;;;;;15.79;58.67;100431.25;5075629;28;20033;-75
2022/05/15 00:16:26;;;;;;;5.60;3.10;;;;;;;15.79;58.57;100428.56;5075760;28;20481;-75
2022/05/15 00:18:54;;;;;;;7.63;3.40;;;;;;;15.64;59.77;100435.16;5074283;28;20049;-75
2022/05/15 00:21:22;;;;;;;7.50;3.50;;;;;;;15.61;59.52;100424.63;5075607;28;20044;-75
2022/05/15 00:23:52;;;;;;;6.63;3.22;;;;;;;15.68;59.37;100428.56;5075168;28;20394;-74
2022/05/15 00:26:20;;;;;;;5.47;3.20;;;;;;;15.49;60.21;100425.56;5074305;28;20051;-73
2022/05/15 00:28:48;;;;;;;9.05;3.55;;;;;;;15.37;61.39;100425.53;5074160;28;20044;-74
2022/05/15 00:31:16;;;;;;;6.50;3.53;;;;;;;15.08;63.25;100435.84;5074465;28;20056;-74
2022/05/15 00:33:46;;;;;;;6.45;3.08;;;;;;;15.00;63.40;100440.94;5075437;28;20121;-73
2022/05/15 00:36:14;;;;;;;7.15;3.28;;;;;;;15.00;63.47;100442.75;5075252;28;20102;-72
2022/05/15 00:38:45;;;;;;;6.18;3.20;;;;;;;14.98;63.50;100445.56;5075358;28;20470;-71
2022/05/15 00:41:15;;;;;;;8.30;3.45;;;;;;;14.98;63.61;100450.94;5075592;28;20462;-73
2022/05/15 00:43:47;;;;;;;6.30;3.03;;;;;;;14.98;63.57;100448.25;5075477;28;20123;-72
2022/05/15 00:46:18;;;;;;;6.82;3.53;;;;;;;14.93;64.07;100445.03;5074091;28;20052;-72
2022/05/15 00:48:48;;;;;;;6.13;3.55;;;;;;;14.78;64.62;100444.38;5074587;28;20044;-78
2022/05/15 00:51:22;;;;;;;7.35;3.20;;;;;;;14.88;63.99;100450.78;5074000;28;20052;-75
2022/05/15 00:54:01;;;;;;;6.72;3.03;;;;;;;15.03;63.62;100450.56;5073649;28;20053;-74
2022/05/15 00:56:34;;;;;;;7.60;3.25;;;;;;;14.97;63.60;100451.06;5073869;28;20045;-74
2022/05/15 00:59:09;;;;;;;6.68;3.28;;;;;;;14.91;63.44;100447.00;5073530;28;20131;-74
2022/05/15 01:01:37;;;;;;;5.20;3.00;;;;;;;15.03;63.07;100445.19;5073837;28;20483;-74
2022/05/15 01:04:05;;;;;;;7.38;3.10;;;;;;;15.10;62.70;100441.09;5074385;28;20478;-74
2022/05/15 01:06:36;;;;;;;6.28;3.20;;;;;;;15.14;62.05;100431.81;5073511;28;20059;-72
2022/05/15 01:09:06;;;;;;;6.95;2.83;;;;;;;15.10;62.37;100441.09;5074534;28;20041;-73
2022/05/15 01:11:37;;;;;;;7.00;2.95;;;;;;;14.99;62.86;100433.00;5074446;28;20043;-73
2022/05/15 01:14:09;;;;;;;6.72;3.38;;;;;;;15.06;62.57;100428.88;5074507;28;20041;-73
2022/05/15 01:16:38;;;;;;;7.50;3.47;;;;;;;15.00;62.80;100424.81;5074807;28;20423;-73
2022/05/15 01:19:07;;;;;;;6.38;3.00;;;;;;;14.98;63.28;100423.22;5074367;28;20072;-73
2022/05/15 01:21:40;;;;;;;7.40;3.20;;;;;;;14.83;63.59;100423.38;5073310;28;20045;-73
2022/05/15 01:24:09;;;;;;;6.18;3.20;;;;;;;14.75;64.01;100425.78;5074420;28;20530;-73
2022/05/15 01:26:39;;;;;;;7.93;3.20;;;;;;;14.79;64.51;100423.75;5073374;28;20071;-73
2022/05/15 01:29:07;;;;;;;8.75;3.10;;;;;;;14.85;64.35;100431.31;5073910;28;20071;-74
2022/05/15 01:31:37;;;;;;;7.70;3.33;;;;;;;14.86;63.81;100427.66;5074404;28;20124;-74
2022/05/15 01:34:08;;;;;;;8.25;3.45;;;;;;;14.93;63.38;100434.28;5074054;28;20086;-73
2022/05/15 01:36:38;;;;;;;7.90;3.75;;;;;;;14.93;63.50;100431.59;5073383;28;20052;-73
2022/05/15 01:39:08;;;;;;;7.78;3.60;;;;;;;14.75;64.27;100441.03;5072395;28;20075;-73
2022/05/15 01:41:36;;;;;;;7.68;3.05;;;;;;;14.76;64.45;100438.25;5073768;28;20047;-73
2022/05/15 01:44:05;;;;;;;11.23;3.28;;;;;;;14.70;65.24;100436.03;5073068;28;20052;-74
2022/05/15 01:46:33;;;;;;;9.48;3.58;;;;;;;14.66;65.50;100445.25;5072906;28;20098;-73
2022/05/15 01:49:06;;;;;;;8.57;3.08;;;;;;;14.56;65.74;100439.72;5072941;28;20055;-73
2022/05/15 01:51:36;;;;;;;5.93;3.45;;;;;;;14.70;65.04;100436.03;5073826;28;20090;-73
2022/05/15 01:54:05;;;;;;;8.98;3.80;;;;;;;14.62;65.84;100440.25;5073422;28;20059;-72
2022/05/15 01:56:34;;;;;;;8.45;3.45;;;;;;;14.55;65.50;100435.31;5072841;28;20045;-74
2022/05/15 01:59:02;;;;;;;6.70;3.50;;;;;;;14.52;67.44;100440.94;5072495;28;20066;-75
2022/05/15 02:01:30;;;;;;;9.05;3.45;;;;;;;14.49;67.63;100445.69;5073369;28;20040;-73
2022/05/15 02:03:58;;;;;;;5.88;3.38;;;;;;;14.43;67.40;100451.44;5073686;28;20385;-74
2022/05/15 02:06:28;;;;;;;9.20;4.10;;;;;;;14.41;67.77;100448.03;5072353;28;20079;-73
2022/05/15 02:08:57;;;;;;;8.32;3.60;;;;;;;14.35;68.75;100440.41;5073379;28;20040;-74
2022/05/15 02:11:26;;;;;;;6.82;3.70;;;;;;;14.27;69.04;100449.88;5073773;28;20453;-72
2022/05/15 02:13:54;;;;;;;7.90;4.60;;;;;;;14.33;67.00;100452.13;5073394;28;20048;-73
2022/05/15 02:16:22;;;;;;;8.05;3.95;;;;;;;14.31;68.20;100456.75;5072547;28;20058;-72
2022/05/15 02:18:51;;;;;;;5.65;3.42;;;;;;;14.20;69.40;100455.81;5073674;28;20470;-72
2022/05/15 02:21:22;;;;;;;9.07;4.55;;;;;;;14.24;69.28;100451.91;5073679;28;20044;-71
2022/05/15 02:23:50;;;;;;;7.45;4.07;;;;;;;14.18;69.53;100450.53;5072202;28;20044;-72
2022/05/15 02:26:18;;;;;;;9.55;4.07;;;;;;;14.19;69.97;100454.94;5072151;28;20056;-73
2022/05/15 02:28:48;;;;;;;6.50;4.10;;;;;;;14.12;70.20;100453.66;5073540;28;20470;-74
2022/05/15 02:31:16;;;;;;;9.05;4.45;;;;;;;14.08;70.43;100456.66;5073139;28;20041;-74
2022/05/15 02:33:45;;;;;;;6.07;3.95;;;;;;;14.04;70.71;100461.41;5071200;28;20047;-76
2022/05/15 02:36:13;;;;;;;6.72;4.32;;;;;;;14.03;71.05;100462.38;5052997;28;20068;-76
2022/05/15 02:38:41;;;;;;;11.75;3.95;;;;;;;13.97;71.75;100460.97;5055769;28;20060;-76
2022/05/15 02:41:09;;;;;;;7.47;4.03;;;;;;;14.05;70.86;100452.38;5073300;28;20041;-76
2022/05/15 02:43:38;;;;;;;11.75;4.25;;;;;;;14.17;70.19;100456.00;5072876;28;20052;-73
2022/05/15 02:46:07;;;;;;;8.35;4.30;;;;;;;14.27;69.49;100452.53;5066955;28;20037;-73
2022/05/15 02:51:21;;;;;;;7.28;4.15;;;;;;;14.25;69.41;100459.84;5073449;28;20448;-73
2022/05/15 02:53:49;;;;;;;10.63;4.45;;;;;;;14.04;70.68;100467.63;5073173;28;20045;-73
2022/05/15 02:56:20;;;;;;;7.93;4.55;;;;;;;13.97;71.50;100470.84;5072929;28;20051;-73
2022/05/15 02:58:49;;;;;;;9.45;4.60;;;;;;;13.88;72.00;100466.13;5073192;28;20048;-73
2022/05/15 03:01:19;;;;;;;10.73;4.65;;;;;;;13.79;72.78;100472.13;5073859;28;20056;-73
2022/05/15 03:03:48;;;;;;;9.35;4.32;;;;;;;13.74;73.47;100478.69;5075070;28;20053;-73
2022/05/15 03:06:18;;;;;;;11.27;5.95;;;;;;;13.72;73.88;100482.44;5056901;28;20033;-73
2022/05/15 03:08:49;;;;;;;10.63;5.88;;;;;;;13.75;73.79;100483.06;5055985;28;20076;-74
2022/05/15 03:11:17;;;;;;;9.82;5.55;;;;;;;13.82;73.81;100483.53;5056450;28;20472;-74
2022/05/15 03:13:46;;;;;;;12.15;6.38;;;;;;;13.74;74.33;100489.41;5057041;28;20048;-74
2022/05/15 03:16:15;;;;;;;13.73;6.97;;;;;;;13.69;74.62;100482.63;5056716;28;20051;-74
2022/05/15 03:18:47;;;;;;;12.68;7.07;;;;;;;13.89;74.13;100478.56;5056836;28;20090;-74
2022/05/15 03:21:28;;;;;;;14.93;8.00;;;;;;;14.20;72.18;100479.94;5055005;28;20053;-74
2022/05/15 03:24:00;;;;;;;15.53;8.07;;;;;;;14.11;72.10;100483.28;5056713;28;20099;-77
2022/05/15 03:26:29;;;;;;;17.33;8.52;;;;;;;14.14;72.00;100483.91;5072175;28;20045;-76
2022/05/15 03:28:58;;;;;;;15.40;7.32;;;;;;;14.24;71.48;100484.97;5055156;28;20049;-77
2022/05/15 03:31:27;;;;;;;11.45;6.22;;;;;;;14.14;72.98;100489.28;5056672;28;20044;-76
2022/05/15 03:33:57;;;;;;;11.65;6.30;;;;;;;14.08;73.79;100489.72;5055288;28;20049;-76
2022/05/15 03:36:26;;;;;;;13.88;5.97;;;;;;;14.12;73.69;100485.84;5066401;28;20072;-76
2022/05/15 03:38:54;;;;;;;12.65;5.93;;;;;;;14.13;73.94;100484.88;5076395;28;20128;-76
2022/05/15 03:41:22;;;;;;;9.90;5.70;;;;;;;14.17;73.73;100488.19;5076082;28;20111;-76
2022/05/15 03:43:53;;;;;;;11.25;5.78;;;;;;;14.16;73.40;100481.97;5074772;28;20497;-76
2022/05/15 03:46:21;;;;;;;8.90;5.43;;;;;;;14.17;73.52;100489.06;5074929;28;20455;-76
2022/05/15 03:48:50;;;;;;;11.88;5.60;;;;;;;14.39;72.29;100490.22;5075874;28;20047;-76
2022/05/15 03:51:19;;;;;;;8.93;5.88;;;;;;;14.61;71.37;100490.41;5074812;28;20064;-76
2022/05/15 03:53:48;;;;;;;10.38;5.70;;;;;;;15.17;68.75;100494.25;5076260;28;20091;-76
2022/05/15 03:56:16;;;;;;;10.43;5.50;;;;;;;16.10;64.91;100490.69;5076024;28;20047;-76
2022/05/15 03:58:50;;;;;;;10.30;5.07;;;;;;;16.25;63.57;100494.88;5074966;28;20063;-76
2022/05/15 04:01:19;;;;;;;12.13;4.68;;;;;;;16.19;63.02;100495.34;5074407;28;20105;-78
2022/05/15 04:03:47;;;;;;;10.88;5.10;;;;;;;16.84;61.21;100492.72;5076120;28;20071;-75
2022/05/15 04:06:15;;;;;;;16.70;5.43;;;;;;;17.62;58.62;100496.94;5075795;28;20044;-75
2022/05/15 04:08:45;;;;;;;10.25;4.70;;;;;;;17.04;59.50;100499.16;5076021;28;20397;-75
2022/05/15 04:11:13;;;;;;;9.52;4.50;;;;;;;16.94;60.12;100492.81;5073664;28;20485;-74
2022/05/15 04:13:41;;;;;;;7.63;4.38;;;;;;;17.06;60.02;100496.34;5075861;28;20040;-75
2022/05/15 04:16:10;;;;;;;7.68;4.05;;;;;;;18.00;56.43;100504.44;5074328;28;20143;-74
2022/05/15 04:18:38;;;;;;;8.63;4.50;;;;;;;17.90;56.40;100502.69;5075475;28;20083;-74
2022/05/15 04:21:06;;;;;;;7.85;4.38;;;;;;;18.11;55.73;100506.19;5074172;28;20052;-76
2022/05/15 04:23:35;;;;;;;6.95;4.38;;;;;;;18.48;54.17;100511.91;5075652;28;20041;-76
2022/05/15 04:26:05;;;;;;;8.98;4.30;;;;;;;18.88;53.44;100501.09;5074127;28;20148;-76
2022/05/15 04:28:34;;;;;;;11.40;4.63;;;;;;;19.25;52.22;100505.84;5075884;28;20485;-75
2022/05/15 04:31:05;;;;;;;7.13;4.47;;;;;;;19.57;51.18;100502.88;5075404;28;20539;-75
2022/05/15 04:33:34;;;;;;;7.40;3.78;;;;;;;19.76;50.56;100501.97;5074284;28;20056;-75
2022/05/15 04:36:02;;;;;;;6.72;4.35;;;;;;;20.17;49.76;100499.88;5074086;28;20098;-73
2022/05/15 04:38:31;;;;;;;7.07;3.75;;;;;;;19.79;49.99;100500.88;5075428;28;20390;-73
2022/05/15 04:40:59;;;;;;;9.05;3.88;;;;;;;19.40;51.38;100501.72;5075507;28;20119;-72
2022/05/15 04:43:28;;;;;;;9.95;4.05;;;;;;;19.44;51.47;100499.56;5073847;28;20044;-73
2022/05/15 04:45:57;;;;;;;8.35;3.83;;;;;;;20.27;49.34;100506.13;5075305;28;20055;-73
2022/05/15 04:48:25;;;;;;;9.52;3.55;;;;;;;20.69;47.96;100508.38;5073676;28;20055;-72
2022/05/15 04:50:53;;;;;;;5.68;3.20;;;;;;;21.24;46.81;100511.03;5075454;28;20088;-72
2022/05/15 04:53:23;;;;;;;9.27;3.78;;;;;;;21.29;46.04;100514.16;5073550;28;20064;-72
2022/05/15 04:55:51;;;;;;;6.68;3.08;;;;;;;21.56;45.51;100521.34;5074853;28;20047;-74
2022/05/15 04:58:20;;;;;;;5.78;3.60;;;;;;;19.82;49.16;100523.06;5073563;28;20131;-74
2022/05/15 05:00:49;;;;;;;5.88;3.20;;;;;;;21.32;46.43;100519.25;5073737;28;20049;-73
2022/05/15 05:03:18;;;;;;;6.97;3.47;;;;;;;20.95;46.89;100517.50;5073412;28;20049;-73
2022/05/15 05:05:46;;;;;;;5.80;3.40;;;;;;;22.04;44.43;100518.16;5073628;28;20511;-74
2022/05/15 05:08:14;;;;;;;7.68;3.40;;;;;;;21.67;45.16;100524.66;5073335;28;20131;-74
2022/05/15 05:10:43;;;;;;;6.00;3.20;;;;;;;21.95;44.31;100521.81;5073606;28;20049;-73
2022/05/15 05:13:11;;;;;;;7.22;3.70;;;;;;;22.34;43.29;100524.13;5074545;28;20470;-74
2022/05/15 05:15:41;;;;;;;8.77;4.18;;;;;;;21.97;43.61;100536.09;5073356;28;20060;-74
2022/05/15 05:18:14;;;;;;;7.40;3.75;;;;;;;23.07;41.31;100532.63;5074434;28;20041;-75
2022/05/15 05:20:44;;;;;;;7.07;3.17;;;;;;;22.26;42.46;100525.78;5074817;28;20044;-75
2022/05/15 05:23:12;;;;;;;6.57;2.97;;;;;;;22.62;41.65;100525.63;5073337;28;20063;-74
2022/05/15 05:25:41;;;;;;;6.30;3.17;;;;;;;23.05;40.50;100521.03;5074801;28;20067;-74
2022/05/15 05:28:10;;;;;;;5.53;2.97;;;;;;;23.23;40.17;100524.47;5074182;28;20036;-74
2022/05/15 05:30:38;;;;;;;5.72;2.75;;;;;;;23.48;39.35;100521.81;5074424;28;20165;-73
2022/05/15 05:33:10;;;;;;;8.15;3.42;;;;;;;23.98;38.64;100527.94;5074065;28;20127;-74
2022/05/15 05:35:40;;;;;;;5.82;2.83;;;;;;;23.59;38.94;100524.22;5073106;28;20056;-74
2022/05/15 05:38:09;;;;;;;7.38;2.53;;;;;;;23.89;39.11;100526.25;5072807;28;20044;-73
2022/05/15 05:40:37;;;;;;;8.05;2.92;;;;;;;24.02;38.28;100535.75;5073127;28;20045;-74
2022/05/15 05:43:05;;;;;;;5.53;2.75;;;;;;;24.40;37.76;100531.44;5072603;28;20139;-79
2022/05/15 05:45:34;;;;;;;7.95;2.72;;;;;;;24.49;37.30;100527.69;5073000;28;20053;-73
2022/05/15 05:48:02;;;;;;;5.85;2.75;;;;;;;24.35;37.87;100532.00;5074017;28;20400;-73
2022/05/15 05:50:31;;;;;;;6.53;2.80;;;;;;;25.29;36.91;100524.75;5072104;28;20056;-71
2022/05/15 05:53:01;;;;;;;7.18;3.00;;;;;;;25.51;35.83;100529.38;5072719;28;20053;-71
2022/05/15 05:55:30;;;;;;;8.40;2.65;;;;;;;26.02;35.70;100531.53;5072410;28;20055;-71
2022/05/15 05:57:58;;;;;;;6.85;2.70;;;;;;;25.58;35.86;100530.34;5072639;28;20080;-71
2022/05/15 06:00:29;;;;;;;7.68;2.60;;;;;;;25.48;35.74;100532.47;5073547;28;20068;-72
2022/05/15 06:05:39;;;;;;;5.67;2.40;;;;;;;26.13;34.50;100529.19;5072413;28;20055;-72
2022/05/15 06:08:09;;;;;;;5.82;2.47;;;;;;;26.42;33.68;100527.53;5073636;28;20463;-72
2022/05/15 06:10:37;;;;;;;6.93;2.60;;;;;;;26.40;33.59;100535.09;5072455;28;20414;-71
2022/05/15 06:13:05;;;;;;;5.18;2.40;;;;;;;26.81;33.74;100538.16;5071985;28;20048;-72
2022/05/15 06:15:34;;;;;;;10.20;2.45;;;;;;;26.80;34.00;100536.47;5073576;28;20201;-72
2022/05/15 06:18:04;;;;;;;8.40;3.03;;;;;;;27.04;33.25;100541.66;5073295;28;20076;-72
2022/05/15 06:20:33;;;;;;;4.47;2.30;;;;;;;27.24;33.01;100533.69;5071941;28;20139;-75
2022/05/15 06:23:01;;;;;;;4.78;2.50;;;;;;;27.21;32.36;100539.50;5072233;28;20437;-75
2022/05/15 06:25:31;;;;;;;5.55;2.28;;;;;;;27.75;31.72;100538.22;5071918;28;20410;-76
2022/05/15 06:27:59;;;;;;;5.22;2.35;;;;;;;28.21;31.11;100542.19;5072059;28;20036;-76
2022/05/15 06:30:33;;;;;;;5.60;2.22;;;;;;;28.37;31.09;100541.03;5071900;28;20123;-76
2022/05/15 06:33:01;;;;;;;4.10;2.20;;;;;;;28.82;30.19;100543.41;5073379;28;20044;-72
2022/05/15 06:35:30;;;;;;;5.88;2.33;;;;;;;28.86;29.28;100533.72;5071514;28;20090;-75
2022/05/15 06:38:00;;;;;;;5.00;2.47;;;;;;;28.87;29.67;100532.66;5072106;28;20135;-73
2022/05/15 06:40:29;;;;;;;7.40;2.50;;;;;;;28.77;29.39;100533.88;5071539;28;20072;-74
2022/05/15 06:42:58;;;;;;;5.10;2.33;;;;;;;28.11;29.66;100536.19;5071995;28;20489;-74
2022/05/15 06:45:28;;;;;;;5.10;2.00;;;;;;;28.42;29.01;100537.69;5071636;28;20136;-76
2022/05/15 06:47:56;;;;;;;5.78;2.53;;;;;;;28.52;28.84;100539.03;5071634;28;20052;-74
2022/05/15 06:50:25;;;;;;;4.72;2.10;;;;;;;29.03;28.03;100529.56;5071485;28;20087;-74
2022/05/15 06:52:53;;;;;;;6.20;2.25;;;;;;;28.76;27.37;100529.44;5073126;28;20053;-74
2022/05/15 06:55:23;;;;;;;5.18;2.58;;;;;;;28.14;29.12;100532.19;5072950;28;20040;-73
2022/05/15 06:57:51;;;;;;;4.93;2.20;;;;;;;27.24;29.71;100528.19;5072026;28;20052;-75
2022/05/15 07:00:22;;;;;;;8.27;2.35;;;;;;;26.60;31.56;100535.34;5071627;28;20052;-76
2022/05/15 07:02:51;;;;;;;4.47;2.03;;;;;;;25.72;30.61;100536.06;5071843;28;20058;-77
2022/05/15 07:05:23;;;;;;;6.03;1.98;;;;;;;24.96;31.22;100526.78;5071515;28;20456;-78
2022/05/15 07:07:52;;;;;;;3.60;2.30;;;;;;;24.54;32.91;100531.59;5078277;28;20051;-76
2022/05/15 07:10:22;;;;;;;5.07;2.38;;;;;;;25.11;31.75;100534.09;5088225;28;20044;-72
2022/05/15 07:12:50;;;;;;;7.05;2.70;;;;;;;25.09;32.05;100525.22;5071671;28;20048;-76
2022/05/15 07:15:20;;;;;;;6.18;2.75;;;;;;;24.92;32.42;100533.66;5071491;28;20405;-76
2022/05/15 07:17:48;;;;;;;5.97;2.38;;;;;;;25.19;32.65;100529.56;5072791;28;20055;-79
2022/05/15 07:20:19;;;;;;;7.55;2.67;;;;;;;24.91;32.04;100534.69;5071650;28;20048;-79
2022/05/15 07:22:48;;;;;;;7.28;2.50;;;;;;;25.09;31.99;100527.06;5072958;28;20470;-79
2022/05/15 07:25:16;;;;;;;5.22;2.00;;;;;;;24.85;31.63;100522.59;5071231;28;20059;-78
2022/05/15 07:27:44;;;;;;;6.07;2.00;;;;;;;24.78;31.18;100532.50;5071475;28;20095;-78
2022/05/15 07:30:14;;;;;;;6.88;2.42;;;;;;;24.48;31.37;100529.56;5071600;28;20409;-77
2022/05/15 07:32:46;;;;;;;4.82;2.13;;;;;;;24.58;31.64;100537.53;5072977;28;20040;-78
2022/05/15 07:35:15;;;;;;;7.38;2.08;;;;;;;23.97;31.67;100531.69;5071529;28;20063;-80
2022/05/15 07:37:43;;;;;;;5.53;2.15;;;;;;;24.06;32.00;100540.72;5071422;28;20047;-73
2022/05/15 07:40:12;;;;;;;5.88;1.92;;;;;;;24.20;32.45;100539.13;5071243;28;20054;-73
2022/05/15 07:42:43;;;;;;;4.15;2.10;;;;;;;24.31;31.82;100536.06;5071734;28;20049;-78
2022/05/15 07:45:13;;;;;;;5.60;2.17;;;;;;;24.14;31.84;100523.50;5071525;28;20505;-78
2022/05/15 07:47:41;;;;;;;5.55;2.10;;;;;;;24.07;32.49;100536.97;5075453;28;20040;-73
2022/05/15 07:50:13;;;;;;;5.25;2.00;;;;;;;23.73;33.08;100528.97;5074829;28;20060;-83
2022/05/15 07:52:42;;;;;;;4.28;2.20;;;;;;;23.80;32.71;100530.00;5076713;28;20448;-78
2022/05/15 07:55:12;;;;;;;5.40;1.98;;;;;;;23.74;32.52;100525.25;5076344;28;20060;-79
2022/05/15 07:57:40;;;;;;;4.00;2.10;;;;;;;23.89;32.93;100528.13;5075412;28;20513;-77
2022/05/15 08:00:13;;;;;;;4.20;1.90;;;;;;;23.74;32.57;100529.81;5076031;28;20090;-79
2022/05/15 08:02:42;;;;;;;3.47;1.83;;;;;;;23.83;32.71;100532.38;5075237;28;20409;-74
2022/05/15 08:08:02;;;;;;;7.30;1.80;;;;;;;24.04;31.95;100528.28;5074802;28;20056;-76
2022/05/15 08:10:34;;;;;;;4.88;2.15;;;;;;;24.11;31.45;100523.81;5074533;28;20445;-81
2022/05/15 08:13:03;;;;;;;6.15;1.90;;;;;;;23.95;31.01;100531.03;5074871;28;20040;-81
2022/05/15 08:15:32;;;;;;;3.20;1.55;;;;;;;23.97;30.34;100523.53;5075739;28;20047;-80
2022/05/15 08:23:33;;;;;;;7.47;2.40;;;;;;;23.82;31.19;100527.94;5075853;28;20094;-82
2022/05/15 08:23:38;;;;;;;7.00;1.65;;;;;;;23.99;30.58;100526.91;5075115;28;20050;-78
2022/05/15 08:26:07;;;;;;;4.75;1.70;;;;;;;24.11;30.46;100529.28;5075523;28;20068;-78
2022/05/15 08:28:36;;;;;;;5.88;2.00;;;;;;;24.00;30.00;100527.75;5074233;28;20102;-80
2022/05/15 08:31:06;;;;;;;7.75;1.73;;;;;;;23.81;29.00;100528.97;5074509;28;20055;-81
2022/05/15 08:33:36;;;;;;;6.05;1.70;;;;;;;23.69;30.14;100530.34;5074100;28;20094;-80
2022/05/15 08:36:08;;;;;;;4.80;2.10;;;;;;;23.67;30.61;100526.94;5075171;28;20045;-80
2022/05/15 08:38:37;;;;;;;3.88;1.67;;;;;;;23.88;31.19;100530.00;5074096;28;20147;-80
2022/05/15 08:41:17;;;;;;;3.95;1.77;;;;;;;23.78;31.42;100532.06;5075181;28;20116;-81
2022/05/15 08:43:47;;;;;;;4.95;1.70;;;;;;;23.86;31.74;100531.19;5074000;28;20048;-84
2022/05/15 08:46:29;;;;;;;3.83;1.90;;;;;;;23.91;32.30;100526.91;5074455;28;20076;-84
2022/05/15 08:49:05;;;;;;;4.70;1.90;;;;;;;23.81;31.56;100528.97;5075220;28;20103;-84
2022/05/15 08:51:34;;;;;;;4.65;2.03;;;;;;;23.81;32.18;100530.84;5073966;28;20075;-84
2022/05/15 08:54:08;;;;;;;4.75;2.00;;;;;;;23.89;32.63;100526.25;5074077;28;20390;-82
2022/05/15 08:56:45;;;;;;;5.65;2.00;;;;;;;24.19;31.98;100521.09;5073767;28;20110;-83
2022/05/15 08:59:22;;;;;;;3.97;1.70;;;;;;;24.35;31.95;100520.25;5073925;28;20110;-78
2022/05/15 09:01:53;;;;;;;3.55;1.73;;;;;;;24.22;31.85;100518.88;5073677;28;20048;-80
2022/05/15 09:04:23;;;;;;;6.13;1.77;;;;;;;24.23;32.38;100517.00;5075016;28;20040;-80
2022/05/15 09:07:10;;;;;;;7.97;2.08;;;;;;;24.02;32.55;100505.78;5073952;28;20055;-79
2022/05/15 09:09:52;;;;;;;5.72;1.85;;;;;;;24.09;32.33;100509.53;5073088;28;20048;-82
2022/05/15 09:12:23;;;;;;;3.50;1.70;;;;;;;23.94;32.57;100512.97;5073642;28;20508;-85
2022/05/15 09:15:01;;;;;;;4.35;1.80;;;;;;;24.22;32.79;100518.00;5073610;28;20044;-77
2022/05/15 09:17:39;;;;;;;3.65;1.80;;;;;;;24.27;32.17;100502.84;5073071;28;20048;-80
2022/05/15 09:20:09;;;;;;;5.00;1.85;;;;;;;24.37;32.47;100508.13;5073571;28;20052;-76
2022/05/15 09:22:42;;;;;;;5.70;1.90;;;;;;;24.19;32.81;100502.00;5073150;28;20040;-76
2022/05/15 09:25:17;;;;;;;5.30;1.90;;;;;;;24.41;32.31;100503.16;5074506;28;20052;-76
2022/05/15 09:27:59;;;;;;;5.40;1.73;;;;;;;24.68;31.92;100493.69;5073012;28;20155;-76
2022/05/15 09:30:34;;;;;;;5.28;1.90;;;;;;;24.83;32.00;100509.13;5072971;28;20052;-77
2022/05/15 09:33:02;;;;;;;3.40;1.90;;;;;;;24.89;31.49;100507.53;5074184;28;20032;-76
2022/05/15 09:35:35;;;;;;;5.03;1.85;;;;;;;24.76;32.02;100496.38;5072723;28;20057;-75
2022/05/15 09:43:52;;;;;;;6.35;2.10;;;;;;;24.60;32.16;100493.72;5088885;28;20056;-78
2022/05/15 09:46:22;;;;;;;4.45;2.00;;;;;;;24.92;32.38;100487.25;5072430;28;20489;-77
2022/05/15 09:48:55;;;;;;;3.92;1.70;;;;;;;25.25;31.55;100493.38;5072896;28;20050;-78
2022/05/15 09:51:30;;;;;;;5.80;1.85;;;;;;;25.40;31.84;100494.31;5072988;28;20044;-77
2022/05/15 09:54:01;;;;;;;4.93;1.60;;;;;;;25.50;32.06;100500.38;5073200;28;20090;-77
2022/05/15 09:56:32;;;;;;;4.20;1.50;;;;;;;24.93;30.80;100497.16;5072446;28;20489;-77
2022/05/15 09:59:09;;;;;;;7.22;1.90;;;;;;;24.82;31.01;100492.94;5073089;28;20076;-77
2022/05/15 10:01:51;;;;;;;3.50;1.50;;;;;;;24.59;31.18;100494.75;5072282;28;20056;-79
2022/05/15 10:04:25;;;;;;;4.85;1.85;;;;;;;24.69;31.15;100495.38;5072442;28;20448;-77
2022/05/15 10:06:56;;;;;;;6.05;2.10;;;;;;;24.67;31.47;100486.53;5073535;28;20044;-77
2022/05/15 10:09:30;;;;;;;5.38;1.90;;;;;;;24.94;31.35;100494.22;5071737;28;20527;-78
2022/05/15 10:12:02;;;;;;;5.88;1.70;;;;;;;24.91;30.68;100493.75;5073864;28;20071;-77
2022/05/15 10:14:40;;;;;;;5.07;1.53;;;;;;;24.92;30.40;100485.38;5072335;28;20135;-77
2022/05/15 10:17:11;;;;;;;5.32;1.95;;;;;;;25.30;30.33;100478.16;5072392;28;20059;-77
2022/05/15 10:19:47;;;;;;;5.45;1.67;;;;;;;25.49;30.15;100492.38;5071869;28;20565;-79
2022/05/15 10:22:28;;;;;;;4.68;1.70;;;;;;;25.40;29.51;100478.78;5073583;28;20448;-77
2022/05/15 10:25:21;;;;;;;6.05;2.20;;;;;;;25.38;29.52;100501.81;5072280;28;20076;-79
2022/05/15 10:27:54;;;;;;;;;;;;;;;25.20;30.09;100482.19;5072469;28;20059;-76
2022/05/15 10:30:25;;;;;;;;;;;;;;;25.49;29.20;100487.75;5072497;28;20376;-77
2022/05/15 10:32:59;;;;;;;3.92;1.50;;;;;;;25.44;29.48;100471.06;5072143;28;19921;-79
2022/05/15 10:35:39;;;;;;;5.00;1.48;;;;;;;25.47;29.57;100480.75;5072297;28;20122;-78
2022/05/15 10:38:22;;;;;;;5.13;1.75;;;;;;;25.56;29.11;100480.50;5073458;28;20086;-76
2022/05/15 10:40:57;;;;;;;4.97;1.70;;;;;;;25.30;28.82;100477.31;5071847;28;20063;-79
2022/05/15 10:43:41;;;;;;;4.05;1.75;;;;;;;25.16;29.13;100478.09;5073600;28;20123;-79
2022/05/15 10:46:19;;;;;;;5.90;1.90;;;;;;;25.27;28.17;100477.66;5073328;28;20421;-78
2022/05/15 10:48:55;;;;;;;4.43;1.58;;;;;;;25.40;28.79;100472.47;5071396;28;20060;-79
2022/05/15 10:51:25;;;;;;;3.13;1.58;;;;;;;25.62;27.80;100471.56;5071899;28;20057;-79
2022/05/15 10:57:26;;;;;;;4.40;1.33;;;;;;;25.29;28.73;100468.28;5072167;28;20394;-79
2022/05/15 11:00:01;;;;;;;5.55;1.85;;;;;;;25.31;28.89;100479.00;5072680;28;20047;-79
2022/05/15 11:03:09;;;;;;;3.25;1.45;;;;;;;25.62;28.17;100468.84;5071854;28;20071;-79
2022/05/15 11:05:45;;;;;;;3.88;1.75;;;;;;;25.78;27.96;100470.63;5071716;28;20596;-79
2022/05/15 11:08:37;;;;;;;4.75;1.77;;;;;;;25.49;28.67;100475.97;5071949;28;20113;-79
2022/05/15 11:11:16;;;;;;;3.45;1.60;;;;;;;25.13;28.51;100462.09;5071319;28;20519;-77
2022/05/15 11:13:54;;;;;;;4.88;1.65;;;;;;;25.26;28.81;100463.16;5071293;28;20114;-79
2022/05/15 11:16:32;;;;;;;6.60;1.60;;;;;;;25.32;28.66;100464.31;5071787;28;20053;-78
2022/05/15 11:19:22;;;;;;;4.32;1.73;;;;;;;25.54;28.50;100463.44;5072240;28;20044;-79
2022/05/15 11:21:57;;;;;;;3.63;1.67;;;;;;;25.26;27.51;100462.31;5073150;28;20140;-79
2022/05/15 11:24:36;;;;;;;3.65;1.60;;;;;;;25.53;27.83;100455.44;5076018;28;20055;-79
2022/05/15 11:27:16;;;;;;;5.10;1.63;;;;;;;25.30;28.49;100456.31;5075652;28;20048;-79
2022/05/15 11:29:49;;;;;;;4.03;1.88;;;;;;;25.59;29.18;100460.19;5076633;28;20043;-79
2022/05/15 11:32:39;;;;;;;6.10;1.90;;;;;;;25.63;28.93;100456.03;5076968;28;20036;-79
2022/05/15 11:35:23;;;;;;;6.80;1.90;;;;;;;25.57;28.89;100448.56;5075174;28;20514;-79
2022/05/15 11:38:10;;;;;;;3.08;1.25;;;;;;;25.31;28.36;100441.66;5075118;28;20058;-79
2022/05/15 11:40:42;;;;;;;3.80;1.55;;;;;;;25.39;27.57;100448.94;5075044;28;20084;-78
2022/05/15 11:44:00;;;;;;;4.30;1.58;;;;;;;25.43;27.71;100444.78;5076666;28;20047;-78
2022/05/15 11:47:16;;;;;;;5.05;1.60;;;;;;;25.47;28.13;100446.09;5074996;28;20048;-79
2022/05/15 11:50:04;;;;;;;3.60;1.70;;;;;;;25.40;27.41;100440.53;5074535;28;20052;-79
2022/05/15 11:52:37;;;;;;;5.53;1.90;;;;;;;25.46;27.85;100438.94;5075264;28;20052;-78
2022/05/15 11:55:46;;;;;;;3.97;1.83;;;;;;;25.53;27.48;100439.91;5076443;28;20059;-78
2022/05/15 11:58:41;;;;;;;4.50;1.77;;;;;;;25.73;28.46;100428.50;5084748;28;20044;-79
2022/05/15 12:01:14;;;;;;;6.78;1.90;;;;;;;25.42;28.30;100429.44;5075230;28;20461;-78
2022/05/15 12:03:53;;;;;;;5.75;1.98;;;;;;;25.52;28.02;100438.22;5074708;28;20049;-78
2022/05/15 12:06:25;;;;;;;3.70;1.70;;;;;;;25.51;27.33;100441.97;5076144;28;20037;-78